Astro Chloe — SVAL7 — position and weather

sailwx.info

Track history (hours):
 
Tides and Currents Weather Stations Pressure Air Temp Water Temp Dewpoint Dewpoint Depression Visibility Wind Speed Wind Dir Waves Ship Positions

Astro Chloe

Last reported at 2014-Nov-23 14:24 UTC. Time now 2014-Nov-28 15:52 UTC.
Position N 01°11' E 103°40'.

Length 333 m; draft 11 m.

Type: Ship (hazmat cat C). MMSI: 240839000.

Date/timePositionNaut miles runAvg speedWind from/ knotsBaromVisibWave heightAir tempDewpointWater temp
2014-Nov-23 14:24N 01°11' E 103°40'1 1.6
2014-Nov-23 13:33N 01°12' E 103°41'0 0.0
2014-Nov-23 12:33N 01°12' E 103°41'0 0.0
2014-Nov-23 11:33N 01°12' E 103°41'0 0.1
2014-Nov-23 10:32N 01°12' E 103°41'0 0.1
2014-Nov-23 09:31N 01°11' E 103°41'0 0.1
2014-Nov-23 08:33N 01°12' E 103°41'0 0.0
2014-Nov-23 07:21N 01°11' E 103°41'0 0.1
2014-Nov-23 06:33N 01°12' E 103°41'0 0.0
2014-Nov-23 05:23N 01°11' E 103°41'0 0.0
2014-Nov-23 04:30N 01°11' E 103°41'0 0.1
2014-Nov-23 03:33N 01°11' E 103°41'0 0.0
2014-Nov-23 02:32N 01°11' E 103°41'0 0.1
2014-Nov-23 01:32N 01°11' E 103°41'0 0.2
2014-Nov-23 00:33N 01°11' E 103°41'0 0.1
2014-Nov-22 23:32N 01°11' E 103°41'0 0.1
2014-Nov-22 22:31N 01°11' E 103°41'0 0.0
2014-Nov-22 21:32N 01°11' E 103°41'0 0.0
2014-Nov-22 20:33N 01°11' E 103°41'0 0.0
2014-Nov-22 19:33N 01°11' E 103°41'0 0.1
2014-Nov-22 18:33N 01°11' E 103°41'0 0.1
2014-Nov-22 17:33N 01°11' E 103°41'0 0.0
2014-Nov-22 16:30N 01°11' E 103°41'0 0.1
2014-Nov-22 15:33N 01°11' E 103°41'0 0.2
2014-Nov-22 14:33N 01°11' E 103°41'3 3.4
2014-Nov-22 13:33N 01°15' E 103°42'0 0.0
2014-Nov-20 10:31N 01°15' E 103°41'0 0.0
2014-Nov-20 09:31N 01°15' E 103°41'0 0.0
2014-Nov-20 08:31N 01°15' E 103°41'0 0.0
2014-Nov-20 07:31N 01°15' E 103°41'0 0.0
2014-Nov-20 05:16N 01°15' E 103°41'0 0.0
2014-Nov-20 04:16N 01°15' E 103°41'0 0.0
2014-Nov-20 03:16N 01°15' E 103°41'0 0.0
2014-Nov-20 02:13N 01°15' E 103°41'0 0.5
2014-Nov-20 01:31N 01°14' E 103°42'1 0.0
2014-Nov-18 13:16N 01°14' E 103°41'0 0.0
2014-Nov-18 12:28N 01°14' E 103°41'0 0.0
2014-Nov-18 10:22N 01°14' E 103°41'0 0.0
2014-Nov-18 09:31N 01°14' E 103°41'0 0.3
2014-Nov-18 08:32N 01°14' E 103°41'2 1.9
2014-Nov-18 07:31N 01°13' E 103°39'0 0.0
2014-Nov-18 02:29N 01°13' E 103°39'0 0.1
2014-Nov-18 01:32N 01°13' E 103°39'0 0.1
2014-Nov-18 00:31N 01°13' E 103°39'0 0.0
2014-Nov-17 23:34N 01°13' E 103°39'0 0.1
2014-Nov-17 22:22N 01°13' E 103°39'0 0.2
2014-Nov-17 21:04N 01°13' E 103°39'0 0.3
2014-Nov-17 20:33N 01°13' E 103°39'0 0.1
2014-Nov-17 19:31N 01°13' E 103°39'0 0.1
2014-Nov-17 18:33N 01°13' E 103°39'0 0.1
2014-Nov-17 16:29N 01°13' E 103°39'0 0.0
2014-Nov-17 14:30N 01°13' E 103°39'0 0.0
2014-Nov-17 13:16N 01°13' E 103°39'0 0.0
2014-Nov-17 11:28N 01°13' E 103°39'0 0.1
2014-Nov-17 10:34N 01°13' E 103°39'0 0.0
2014-Nov-17 09:34N 01°13' E 103°39'0 0.1
2014-Nov-17 08:11N 01°13' E 103°39'0 0.3
2014-Nov-17 07:33N 01°13' E 103°39'0 0.2
2014-Nov-17 06:27N 01°13' E 103°39'0 0.2
2014-Nov-17 05:33N 01°13' E 103°39'0 0.1
2014-Nov-17 04:33N 01°13' E 103°39'0 0.1
2014-Nov-17 03:33N 01°13' E 103°39'0 0.1
2014-Nov-17 02:33N 01°13' E 103°39'0 0.1
2014-Nov-17 00:25N 01°13' E 103°39'0 0.2
2014-Nov-16 23:30N 01°13' E 103°39'1 0.9
2014-Nov-16 22:33N 01°13' E 103°39'  
Track history (hours):
 
Tides and Currents Weather Stations Pressure Air Temp Water Temp Dewpoint Dewpoint Depression Visibility Wind Speed Wind Dir Waves Ship Positions

Astro Chloe

Last reported at 2014-Nov-23 14:24 UTC. Time now 2014-Nov-28 15:52 UTC.
Position N 01°11' E 103°40'.

Length 333 m; draft 11 m.

Type: Ship (hazmat cat C). MMSI: 240839000.

Date/timePositionNaut miles runAvg speedWind from/ knotsBaromVisibWave heightAir tempDewpointWater temp
2014-Nov-23 14:24N 01°11' E 103°40'1 1.6
2014-Nov-23 13:33N 01°12' E 103°41'0 0.0
2014-Nov-23 12:33N 01°12' E 103°41'0 0.0
2014-Nov-23 11:33N 01°12' E 103°41'0 0.1
2014-Nov-23 10:32N 01°12' E 103°41'0 0.1
2014-Nov-23 09:31N 01°11' E 103°41'0 0.1
2014-Nov-23 08:33N 01°12' E 103°41'0 0.0
2014-Nov-23 07:21N 01°11' E 103°41'0 0.1
2014-Nov-23 06:33N 01°12' E 103°41'0 0.0
2014-Nov-23 05:23N 01°11' E 103°41'0 0.0
2014-Nov-23 04:30N 01°11' E 103°41'0 0.1
2014-Nov-23 03:33N 01°11' E 103°41'0 0.0
2014-Nov-23 02:32N 01°11' E 103°41'0 0.1
2014-Nov-23 01:32N 01°11' E 103°41'0 0.2
2014-Nov-23 00:33N 01°11' E 103°41'0 0.1
2014-Nov-22 23:32N 01°11' E 103°41'0 0.1
2014-Nov-22 22:31N 01°11' E 103°41'0 0.0
2014-Nov-22 21:32N 01°11' E 103°41'0 0.0
2014-Nov-22 20:33N 01°11' E 103°41'0 0.0
2014-Nov-22 19:33N 01°11' E 103°41'0 0.1
2014-Nov-22 18:33N 01°11' E 103°41'0 0.1
2014-Nov-22 17:33N 01°11' E 103°41'0 0.0
2014-Nov-22 16:30N 01°11' E 103°41'0 0.1
2014-Nov-22 15:33N 01°11' E 103°41'0 0.2
2014-Nov-22 14:33N 01°11' E 103°41'3 3.4
2014-Nov-22 13:33N 01°15' E 103°42'0 0.0
2014-Nov-20 10:31N 01°15' E 103°41'0 0.0
2014-Nov-20 09:31N 01°15' E 103°41'0 0.0
2014-Nov-20 08:31N 01°15' E 103°41'0 0.0
2014-Nov-20 07:31N 01°15' E 103°41'0 0.0
2014-Nov-20 05:16N 01°15' E 103°41'0 0.0
2014-Nov-20 04:16N 01°15' E 103°41'0 0.0
2014-Nov-20 03:16N 01°15' E 103°41'0 0.0
2014-Nov-20 02:13N 01°15' E 103°41'0 0.5
2014-Nov-20 01:31N 01°14' E 103°42'1 0.0
2014-Nov-18 13:16N 01°14' E 103°41'0 0.0
2014-Nov-18 12:28N 01°14' E 103°41'0 0.0
2014-Nov-18 10:22N 01°14' E 103°41'0 0.0
2014-Nov-18 09:31N 01°14' E 103°41'0 0.3
2014-Nov-18 08:32N 01°14' E 103°41'2 1.9
2014-Nov-18 07:31N 01°13' E 103°39'0 0.0
2014-Nov-18 02:29N 01°13' E 103°39'0 0.1
2014-Nov-18 01:32N 01°13' E 103°39'0 0.1
2014-Nov-18 00:31N 01°13' E 103°39'0 0.0
2014-Nov-17 23:34N 01°13' E 103°39'0 0.1
2014-Nov-17 22:22N 01°13' E 103°39'0 0.2
2014-Nov-17 21:04N 01°13' E 103°39'0 0.3
2014-Nov-17 20:33N 01°13' E 103°39'0 0.1
2014-Nov-17 19:31N 01°13' E 103°39'0 0.1
2014-Nov-17 18:33N 01°13' E 103°39'0 0.1
2014-Nov-17 16:29N 01°13' E 103°39'0 0.0
2014-Nov-17 14:30N 01°13' E 103°39'0 0.0
2014-Nov-17 13:16N 01°13' E 103°39'0 0.0
2014-Nov-17 11:28N 01°13' E 103°39'0 0.1
2014-Nov-17 10:34N 01°13' E 103°39'0 0.0
2014-Nov-17 09:34N 01°13' E 103°39'0 0.1
2014-Nov-17 08:11N 01°13' E 103°39'0 0.3
2014-Nov-17 07:33N 01°13' E 103°39'0 0.2
2014-Nov-17 06:27N 01°13' E 103°39'0 0.2
2014-Nov-17 05:33N 01°13' E 103°39'0 0.1
2014-Nov-17 04:33N 01°13' E 103°39'0 0.1
2014-Nov-17 03:33N 01°13' E 103°39'0 0.1
2014-Nov-17 02:33N 01°13' E 103°39'0 0.1
2014-Nov-17 00:25N 01°13' E 103°39'0 0.2
2014-Nov-16 23:30N 01°13' E 103°39'1 0.9
2014-Nov-16 22:33N 01°13' E 103°39'  

Dump ship's entire track history